Startpagina
METAR-TAF:

METAR-TAF

Vliegvelden :

Luchthaven Rabat-Sale

Rabat, Marokko

breedte: 34-03N, lengte: 006-46W, hoogte: 84 m

Actueel weer

Dit bericht is 14 minuten geleden gemaakt, om 14:30 UTC
Wind 9 kt uit het noordnoordwesten, variërend tussen het westnoordwesten en het noorden
Temperatuur 24°C
Vochtigheid 61%
Druk 1017 hPa
Zicht: 8000 m
Weinig wolken op 2000 ft
Verspreide wolken op 10000 ft

METAR: GMME 151430Z 33009KT 290V360 8000 FEW020 SCT100 24/16 Q1017 NOSIG

Tijdstip: 15:44 (14:44 UTC)

Verwachting

Dit bericht is 3 uur en het 44 minuten geleden gemaakt, om 11:00 UTC
Verwachting geldig van 15 om 12 UTC tot 16 om 18 UTC
Wind 10 kt uit het noordwesten
Zicht: 6000 m
Verspreide wolken op 1500 ft

TAF: GMME 151100Z 1512/1618 32010KT 6000 SCT015

Waarnemingen en weersverwachtingen van meer dan 4000 vliegvelden (METAR en TAF).

De beschikbare stations zijn de gele en rode punten op de kaart.

Ga met uw muis naar het station om de naam te zien.

Klik dan om waarnemingen en weersverwachtingen te zien.

kaart wijzigen: klik op de groene knoppen met een zwart kruis om in te zoomen, op de groene knop met een streepje om uit te zoomen of op de groene pijlen voor aangrenzende kaarten.


METAR-TAF: